CST,Max TemperatureF,Mean TemperatureF,Min TemperatureF,Max Dew PointF,MeanDew PointF,Min DewpointF,Max Humidity, Mean Humidity, Min Humidity, Max Sea Level PressureIn, Mean Sea Level PressureIn, Min Sea Level PressureIn, Max VisibilityMiles, Mean VisibilityMiles, Min VisibilityMiles, Max Wind SpeedMPH, Mean Wind SpeedMPH, Max Gust SpeedMPH,PrecipitationIn, CloudCover, Events, WindDirDegrees
2013-1-1,15,6,-4,9,0,-8,87,80,73,30.38,30.28,30.15,10,7,4,12,7,,0.00,1,,164
2013-1-2,34,18,1,28,18,-1,88,81,75,30.25,30.11,30.04,10,7,2,13,7,,0.00,7,Snow,248
2013-1-3,32,20,8,26,15,4,88,78,68,30.45,30.37,30.24,10,8,5,16,12,,0.00,5,,297
2013-1-4,25,16,7,18,10,4,87,81,72,30.32,30.25,30.17,8,7,5,13,8,,0.00,0,,172
2013-1-5,30,18,7,21,13,3,87,77,67,30.25,30.12,30.03,10,6,3,30,12,39,0.00,2,,264
2013-1-6,25,15,5,19,13,0,87,80,74,30.36,30.27,30.13,10,8,5,16,10,,0.00,0,,193
2013-1-7,35,24,12,28,17,9,100,82,69,30.11,30.01,29.97,10,5,0,25,8,28,0.00,0,Fog,222
2013-1-8,35,22,10,28,17,6,88,79,72,30.14,29.96,29.86,7,3,0,16,6,,0.00,1,Fog,215
2013-1-9,37,24,12,30,23,11,92,84,75,30.45,30.34,30.17,10,7,3,15,4,,0.00,0,,186
2013-1-10,37,30,23,34,29,19,96,85,65,30.32,29.97,29.70,10,6,0,9,7,,0.02,5,Fog-Rain,151
2013-1-11,45,38,28,43,35,21,100,92,75,29.72,29.50,29.38,10,4,0,28,9,34,0.00,4,Fog,220
2013-1-12,24,18,12,15,8,3,72,64,58,30.19,30.06,29.79,10,10,5,22,16,33,0.00,5,Snow,298
2013-1-13,21,14,6,6,3,1,79,66,50,30.38,30.26,30.14,10,10,7,15,10,,0.00,2,,309
2013-1-14,28,16,5,16,8,0,80,73,51,30.51,30.43,30.38,10,10,10,9,5,,0.00,1,,189
2013-1-15,34,22,10,21,14,5,81,71,56,30.38,30.25,30.06,10,9,7,17,9,,0.00,0,,180
2013-1-16,51,36,21,33,26,15,86,72,48,30.28,30.05,29.91,10,9,7,17,11,,0.00,3,,295
2013-1-17,34,28,21,30,26,14,100,87,63,30.48,30.39,30.28,10,4,0,9,5,,0.00,6,Fog,176
2013-1-18,48,38,27,35,30,25,92,76,58,30.27,30.01,29.87,10,9,3,17,11,21,0.00,0,,191
2013-1-19,51,38,21,34,28,11,85,65,50,30.37,30.03,29.85,10,10,8,26,12,34,0.00,0,,300
2013-1-20,18,15,12,11,8,4,79,69,56,30.47,30.43,30.37,10,7,0,18,10,,0.00,5,Snow,348
2013-1-21,14,8,3,3,-3,-7,70,59,45,30.53,30.47,30.41,10,10,10,20,12,26,0.00,4,,331
2013-1-22,18,14,10,9,4,-2,81,71,56,30.45,30.38,30.30,10,8,1,7,3,,0.00,6,Snow,148
2013-1-23,30,19,6,16,8,-6,84,68,54,30.60,30.36,30.20,10,10,8,22,10,26,0.00,0,,360
2013-1-24,19,11,3,7,-2,-8,64,55,48,30.63,30.45,30.23,10,10,10,17,11,21,0.00,3,,124
2013-1-25,46,28,10,26,17,5,81,67,42,30.29,30.20,30.15,10,9,6,18,8,24,0.00,0,,328
2013-1-26,43,28,14,26,17,6,81,64,47,30.30,30.18,30.03,10,9,8,17,10,,0.00,1,,131
2013-1-27,39,37,35,38,34,24,97,89,57,30.00,29.83,29.72,9,3,0,15,10,,0.06,8,Fog-Rain,132
2013-1-28,41,38,35,40,37,34,97,95,93,29.88,29.75,29.58,3,1,0,12,5,,0.03,8,Fog,116
2013-1-29,37,35,30,37,31,26,100,85,76,29.72,29.66,29.59,10,5,2,30,14,37,0.00,8,,339
2013-1-30,30,21,12,23,16,4,88,74,63,29.98,29.83,29.70,10,6,0,31,22,39,0.01,7,Fog-Snow,331
2013-1-31,10,6,0,3,-5,-9,70,59,52,30.48,30.26,30.00,10,9,2,29,18,37,0.00,4,Snow,317